createdAt,value
2023-05-24T00:00:22.747Z,16.56
2023-05-24T00:03:24.750Z,16.59
2023-05-24T00:06:27.654Z,16.63
2023-05-24T00:09:33.033Z,16.67
2023-05-24T00:12:34.895Z,16.59
2023-05-24T00:15:36.816Z,16.63
2023-05-24T00:18:41.629Z,16.52
2023-05-24T00:22:21.393Z,16.61
2023-05-24T00:25:23.419Z,16.66
2023-05-24T00:28:25.476Z,16.66
2023-05-24T00:31:27.466Z,16.64
2023-05-24T00:34:29.419Z,16.56
2023-05-24T00:37:31.349Z,16.55
2023-05-24T00:40:33.335Z,16.58
2023-05-24T00:43:35.684Z,16.66
2023-05-24T00:46:38.031Z,16.73
2023-05-24T00:49:40.742Z,16.82
2023-05-24T00:52:43.592Z,16.81
2023-05-24T00:55:47.386Z,16.85
2023-05-24T00:58:54.608Z,16.86
2023-05-24T01:01:56.786Z,16.86
2023-05-24T01:05:00.081Z,16.85
2023-05-24T01:08:20.620Z,16.84
2023-05-24T01:11:59.796Z,16.84
2023-05-24T01:15:15.059Z,16.89
2023-05-24T01:18:30.383Z,16.92
2023-05-24T01:21:48.452Z,16.92
2023-05-24T01:25:06.262Z,16.93
2023-05-24T01:28:09.619Z,16.95
2023-05-24T01:31:13.605Z,16.97
2023-05-24T01:34:16.307Z,16.98
2023-05-24T01:37:18.396Z,16.97
2023-05-24T01:40:20.603Z,16.97
2023-05-24T01:43:22.446Z,16.96
2023-05-24T01:46:37.537Z,16.97
2023-05-24T01:49:44.685Z,17.01
2023-05-24T01:52:48.184Z,17.02
2023-05-24T01:55:54.143Z,17.04
2023-05-24T01:58:58.908Z,17.05
2023-05-24T02:02:01.676Z,17.05
2023-05-24T02:05:04.165Z,17.04
2023-05-24T02:08:06.128Z,17.02
2023-05-24T02:12:07.833Z,17.00
2023-05-24T02:15:14.853Z,17.07
2023-05-24T02:18:18.735Z,17.12
2023-05-24T02:21:20.982Z,17.01
2023-05-24T02:24:22.996Z,16.98
2023-05-24T02:27:24.935Z,16.97
2023-05-24T02:30:27.399Z,17.03
2023-05-24T02:33:30.041Z,17.03
2023-05-24T02:36:32.699Z,16.99
2023-05-24T02:39:34.691Z,16.93
2023-05-24T02:42:36.707Z,16.89
2023-05-24T02:45:38.790Z,16.77
2023-05-24T02:48:41.071Z,16.68
2023-05-24T02:51:43.094Z,16.44
2023-05-24T02:54:44.973Z,16.27
2023-05-24T02:57:48.220Z,16.32
2023-05-24T03:00:51.063Z,16.14
2023-05-24T03:29:21.997Z,16.13
2023-05-24T03:32:25.543Z,16.17
2023-05-24T03:35:27.572Z,16.13
2023-05-24T03:38:31.854Z,16.11
2023-05-24T03:41:33.955Z,16.13
2023-05-24T03:44:35.950Z,15.97
2023-05-24T03:47:37.897Z,16.03
2023-05-24T03:50:39.943Z,15.99
2023-05-24T03:53:41.904Z,15.90
2023-05-24T03:56:44.662Z,15.98
2023-05-24T03:59:46.669Z,15.87
2023-05-24T04:02:49.337Z,16.01
2023-05-24T04:05:51.527Z,15.83
2023-05-24T04:08:53.636Z,15.82
2023-05-24T04:11:55.836Z,15.90
2023-05-24T04:14:58.837Z,15.65
2023-05-24T04:18:03.414Z,15.73
2023-05-24T04:21:05.657Z,15.92
2023-05-24T04:24:07.755Z,15.85
2023-05-24T04:27:09.990Z,15.68
2023-05-24T04:30:12.225Z,15.77
2023-05-24T04:33:15.027Z,15.86
2023-05-24T04:36:17.824Z,15.82
2023-05-24T04:39:19.783Z,15.96
2023-05-24T04:42:22.217Z,15.90
2023-05-24T04:45:25.037Z,15.97
2023-05-24T04:48:27.306Z,15.99
2023-05-24T04:51:29.450Z,15.90
2023-05-24T04:54:31.350Z,16.01
2023-05-24T04:57:33.434Z,15.99
2023-05-24T05:00:35.514Z,15.99
2023-05-24T05:03:37.476Z,15.97
2023-05-24T05:06:40.632Z,16.08
2023-05-24T05:09:42.558Z,16.04
2023-05-24T05:12:44.627Z,16.12
2023-05-24T05:15:46.579Z,16.17
2023-05-24T05:18:48.486Z,16.15
2023-05-24T05:21:50.881Z,16.22
2023-05-24T05:24:52.963Z,16.29
2023-05-24T05:27:54.939Z,16.38
2023-05-24T05:30:56.942Z,16.19
2023-05-24T05:33:59.017Z,16.23
2023-05-24T05:37:01.004Z,16.43
2023-05-24T05:40:04.095Z,16.53
2023-05-24T05:43:06.038Z,16.58
2023-05-24T05:46:08.275Z,16.56
2023-05-24T05:49:10.350Z,16.66
2023-05-24T05:52:12.390Z,16.72
2023-05-24T05:55:14.381Z,16.86
2023-05-24T05:58:16.394Z,16.65
2023-05-24T06:01:18.337Z,17.05
2023-05-24T06:04:20.521Z,17.01
2023-05-24T06:07:22.754Z,17.28
2023-05-24T06:10:24.772Z,17.38
2023-05-24T06:13:28.864Z,17.47
2023-05-24T06:16:32.635Z,17.44
2023-05-24T06:19:34.939Z,17.61
2023-05-24T06:22:38.661Z,17.53
2023-05-24T06:25:43.886Z,17.62
2023-05-24T06:28:45.838Z,17.53
2023-05-24T06:31:48.956Z,17.42
2023-05-24T06:34:51.288Z,17.69
2023-05-24T06:37:53.186Z,17.84
2023-05-24T06:40:55.220Z,17.93
2023-05-24T06:43:57.190Z,17.91
2023-05-24T06:46:59.170Z,18.11
2023-05-24T06:50:04.123Z,18.06
2023-05-24T06:53:06.790Z,18.06
2023-05-24T06:56:09.555Z,18.02
2023-05-24T06:59:11.805Z,17.93
2023-05-24T07:02:13.880Z,18.35
2023-05-24T07:05:16.078Z,18.42
2023-05-24T07:08:18.185Z,18.36
2023-05-24T07:11:20.157Z,18.53
2023-05-24T07:14:24.100Z,18.61
2023-05-24T07:17:26.413Z,18.39
2023-05-24T07:20:28.909Z,18.07
2023-05-24T07:23:31.259Z,18.29
2023-05-24T07:26:33.313Z,18.19
2023-05-24T07:29:35.330Z,18.31
2023-05-24T07:32:37.559Z,18.16
2023-05-24T07:35:40.374Z,18.20
2023-05-24T07:38:42.711Z,18.64
2023-05-24T07:41:45.084Z,18.74
2023-05-24T07:44:47.048Z,18.78
2023-05-24T07:47:49.023Z,18.87
2023-05-24T07:50:52.148Z,18.73
2023-05-24T07:53:54.069Z,18.50
2023-05-24T07:56:57.443Z,18.58
2023-05-24T07:59:59.435Z,18.74
2023-05-24T08:03:01.920Z,18.65
2023-05-24T08:06:04.185Z,18.56
2023-05-24T08:09:07.725Z,18.31
2023-05-24T08:12:09.994Z,18.58
2023-05-24T08:15:11.955Z,18.57
2023-05-24T08:18:55.379Z,18.45
2023-05-24T08:22:57.296Z,18.46
2023-05-24T08:26:20.942Z,18.37
2023-05-24T08:29:23.005Z,18.37
2023-05-24T08:32:25.211Z,18.27
2023-05-24T08:35:27.193Z,18.37
2023-05-24T08:38:29.492Z,18.40
2023-05-24T08:41:37.407Z,18.41
2023-05-24T08:44:47.256Z,18.32
2023-05-24T08:47:50.747Z,18.18
2023-05-24T08:50:53.397Z,18.27
2023-05-24T08:53:57.042Z,18.23
2023-05-24T08:56:59.652Z,18.15
2023-05-24T09:00:02.119Z,18.34
2023-05-24T09:03:06.350Z,18.48
2023-05-24T09:06:12.180Z,18.37
2023-05-24T09:09:17.913Z,18.45
2023-05-24T09:12:35.658Z,18.52
2023-05-24T09:15:39.989Z,18.34
2023-05-24T09:18:42.965Z,18.40
2023-05-24T09:21:45.355Z,18.54
2023-05-24T09:24:48.634Z,18.59
2023-05-24T09:27:52.278Z,18.45
2023-05-24T09:31:05.422Z,18.45
2023-05-24T09:34:13.533Z,18.52
2023-05-24T09:37:17.959Z,18.51
2023-05-24T09:40:20.778Z,18.15
2023-05-24T09:43:24.909Z,18.23
2023-05-24T09:46:29.857Z,18.20
2023-05-24T09:49:32.628Z,18.32
2023-05-24T09:52:38.439Z,18.15
2023-05-24T09:55:40.796Z,18.36
2023-05-24T09:58:42.936Z,18.23
2023-05-24T10:01:46.246Z,18.10
2023-05-24T10:04:48.491Z,18.26
2023-05-24T10:07:51.912Z,18.41
2023-05-24T10:10:56.560Z,18.48
2023-05-24T10:13:59.552Z,18.53
2023-05-24T10:17:10.773Z,18.56
2023-05-24T10:20:13.050Z,18.98
2023-05-24T10:34:07.046Z,19.22
2023-05-24T11:07:58.643Z,20.59
2023-05-24T11:11:28.654Z,20.19
2023-05-24T11:14:39.524Z,20.78
2023-05-24T11:18:09.392Z,20.96
2023-05-24T11:21:11.529Z,20.95
2023-05-24T11:24:13.921Z,20.99
2023-05-24T11:27:16.102Z,20.98
2023-05-24T11:30:18.453Z,20.84
2023-05-24T11:33:24.486Z,21.84
2023-05-24T11:36:26.570Z,21.29
2023-05-24T11:39:52.838Z,21.26
2023-05-24T11:42:55.281Z,21.54
2023-05-24T11:45:57.423Z,21.12
2023-05-24T11:49:00.205Z,21.09
2023-05-24T11:52:03.254Z,21.45
2023-05-24T11:55:06.276Z,21.11
2023-05-24T11:58:19.772Z,21.43
2023-05-24T12:01:27.805Z,21.12
2023-05-24T12:04:30.574Z,21.44
2023-05-24T12:07:33.124Z,21.61
2023-05-24T12:10:36.886Z,21.67
2023-05-24T12:13:40.474Z,22.23
2023-05-24T12:16:43.896Z,22.35
2023-05-24T12:19:49.987Z,22.18
2023-05-24T12:22:53.031Z,22.11
2023-05-24T12:26:01.912Z,22.14
2023-05-24T12:29:04.043Z,22.75
2023-05-24T12:32:11.951Z,22.33
2023-05-24T12:35:13.976Z,22.37
2023-05-24T12:38:25.052Z,22.32
2023-05-24T12:41:30.787Z,22.25
2023-05-24T12:44:36.109Z,22.91
2023-05-24T12:47:38.232Z,22.62
2023-05-24T12:50:40.316Z,22.59
2023-05-24T12:53:43.421Z,22.46
2023-05-24T12:56:45.751Z,22.40
2023-05-24T12:59:48.345Z,22.42
2023-05-24T13:02:53.075Z,22.79
2023-05-24T13:05:55.129Z,22.27
2023-05-24T13:08:57.114Z,22.28
2023-05-24T13:11:59.022Z,22.21
2023-05-24T13:15:00.987Z,22.47
2023-05-24T13:18:02.993Z,22.36
2023-05-24T13:21:05.583Z,22.36
2023-05-24T13:24:07.820Z,21.62
2023-05-24T13:27:10.232Z,21.94
2023-05-24T13:30:12.628Z,22.10
2023-05-24T13:33:14.956Z,21.57
2023-05-24T13:36:17.445Z,21.98
2023-05-24T13:39:20.383Z,21.83
2023-05-24T13:42:22.283Z,22.00
2023-05-24T13:45:25.134Z,21.67
2023-05-24T13:48:27.197Z,21.50
2023-05-24T13:51:29.497Z,21.80
2023-05-24T13:55:18.670Z,21.69
2023-05-24T13:58:20.814Z,21.86
2023-05-24T14:01:22.757Z,21.95
2023-05-24T14:04:24.761Z,22.13
2023-05-24T14:07:26.979Z,22.23
2023-05-24T14:10:28.974Z,22.02
2023-05-24T14:16:36.753Z,22.11
2023-05-24T14:19:39.081Z,22.11
2023-05-24T14:22:41.438Z,21.96
2023-05-24T14:25:46.498Z,21.31
2023-05-24T14:32:43.872Z,20.56
2023-05-24T14:35:46.564Z,20.75
2023-05-24T14:38:48.684Z,20.72
2023-05-24T14:41:50.721Z,20.68
2023-05-24T14:44:52.718Z,20.58
2023-05-24T14:47:54.614Z,20.37
2023-05-24T14:50:56.625Z,20.46
2023-05-24T14:53:58.648Z,20.66
2023-05-24T14:57:01.075Z,20.82
2023-05-24T15:00:03.863Z,20.73
2023-05-24T15:07:00.844Z,20.73
2023-05-24T15:10:03.215Z,20.82
2023-05-24T15:13:05.695Z,20.91
2023-05-24T15:16:07.653Z,20.81
2023-05-24T15:19:10.197Z,20.54
2023-05-24T15:22:12.178Z,20.61
2023-05-24T15:25:14.411Z,20.70
2023-05-24T15:28:18.391Z,20.78
2023-05-24T15:31:20.511Z,20.64
2023-05-24T15:34:23.747Z,20.62
2023-05-24T15:37:26.284Z,20.70
2023-05-24T15:40:28.526Z,20.63
2023-05-24T15:43:30.758Z,20.75
2023-05-24T15:46:32.823Z,20.74
2023-05-24T15:49:34.984Z,20.83
2023-05-24T15:52:37.122Z,20.84
2023-05-24T15:55:39.127Z,20.80
2023-05-24T15:58:41.124Z,20.78
2023-05-24T16:01:43.065Z,20.66
2023-05-24T16:04:44.954Z,20.02
2023-05-24T16:07:46.920Z,19.67
2023-05-24T16:10:49.222Z,19.73
2023-05-24T16:13:51.251Z,19.43
2023-05-24T16:16:53.277Z,19.25
2023-05-24T16:19:55.414Z,19.24
2023-05-24T16:22:58.133Z,19.40
2023-05-24T16:26:00.213Z,19.23
2023-05-24T16:29:02.176Z,19.29
2023-05-24T16:32:04.438Z,19.31
2023-05-24T16:35:07.568Z,19.49
2023-05-24T16:38:09.485Z,19.24
2023-05-24T16:41:11.565Z,19.43
2023-05-24T16:44:17.805Z,19.50
2023-05-24T16:47:20.139Z,19.52
2023-05-24T16:50:22.077Z,19.37
2023-05-24T16:53:26.132Z,19.28
2023-05-24T16:56:28.072Z,19.23
2023-05-24T16:59:30.052Z,19.35
2023-05-24T17:02:32.124Z,19.26
2023-05-24T17:05:34.146Z,19.40
2023-05-24T17:08:36.634Z,19.31
2023-05-24T17:11:39.696Z,19.12
2023-05-24T17:14:41.819Z,19.23
2023-05-24T17:17:43.764Z,19.22
2023-05-24T17:20:46.062Z,19.25
2023-05-24T17:23:48.468Z,19.20
2023-05-24T17:26:50.468Z,18.93
2023-05-24T17:29:52.414Z,18.88
2023-05-24T17:32:54.464Z,18.66
2023-05-24T17:35:57.684Z,18.74
2023-05-24T17:38:59.555Z,18.71
2023-05-24T17:42:01.476Z,18.63
2023-05-24T17:45:04.278Z,18.63
2023-05-24T17:48:07.089Z,18.55
2023-05-24T17:51:10.402Z,18.71
2023-05-24T17:54:12.288Z,18.58
2023-05-24T17:57:14.198Z,18.04
2023-05-24T18:00:16.982Z,18.09
2023-05-24T18:03:22.256Z,18.30
2023-05-24T18:10:24.469Z,18.05
2023-05-24T18:13:28.132Z,18.15
2023-05-24T18:16:31.498Z,18.16
2023-05-24T18:19:33.538Z,18.01
2023-05-24T18:22:35.496Z,17.57
2023-05-24T18:25:37.487Z,17.79
2023-05-24T18:28:39.514Z,17.82
2023-05-24T18:31:41.558Z,17.68
2023-05-24T18:34:43.618Z,17.78
2023-05-24T18:37:45.522Z,17.54
2023-05-24T18:44:01.501Z,17.64
2023-05-24T18:47:07.024Z,17.73
2023-05-24T18:50:09.507Z,17.70
2023-05-24T18:53:11.423Z,17.47
2023-05-24T18:56:13.471Z,17.35
2023-05-24T18:59:16.830Z,17.47
2023-05-24T19:02:18.970Z,17.47
2023-05-24T19:05:21.151Z,17.50
2023-05-24T19:08:23.074Z,17.55
2023-05-24T19:11:24.967Z,17.34
2023-05-24T19:14:26.824Z,17.16
2023-05-24T19:17:28.802Z,17.21
2023-05-24T19:20:30.914Z,17.27
2023-05-24T19:23:32.878Z,17.07
2023-05-24T19:26:34.856Z,16.92
2023-05-24T19:29:37.068Z,16.69
2023-05-24T19:32:39.024Z,16.52
2023-05-24T19:35:41.210Z,16.53
2023-05-24T19:38:43.761Z,16.41
2023-05-24T19:41:45.758Z,16.32
2023-05-24T19:44:47.726Z,16.48
2023-05-24T19:47:49.980Z,16.18
2023-05-24T19:50:51.951Z,16.39
2023-05-24T19:53:53.882Z,16.17
2023-05-24T19:56:57.775Z,16.17
2023-05-24T20:00:00.818Z,16.27
2023-05-24T20:03:02.776Z,16.09
2023-05-24T20:06:04.826Z,16.06
2023-05-24T20:09:06.867Z,16.04
2023-05-24T20:12:08.940Z,15.93
2023-05-24T20:15:11.616Z,16.15
2023-05-24T20:18:13.555Z,16.07
2023-05-24T20:21:17.456Z,16.14
2023-05-24T20:24:19.515Z,15.97
2023-05-24T20:27:21.515Z,16.02
2023-05-24T20:30:23.556Z,16.11
2023-05-24T20:33:25.612Z,15.82
2023-05-24T20:36:27.488Z,16.07
2023-05-24T20:39:29.434Z,16.12
2023-05-24T20:42:35.583Z,15.88
2023-05-24T20:45:37.576Z,15.87
2023-05-24T20:48:39.812Z,15.90
2023-05-24T20:51:41.738Z,15.90
2023-05-24T20:54:43.854Z,15.87
2023-05-24T20:57:46.162Z,15.92
2023-05-24T21:00:48.088Z,15.94
2023-05-24T21:03:50.043Z,15.83
2023-05-24T21:06:52.022Z,15.95
2023-05-24T21:09:54.209Z,15.74
2023-05-24T21:12:56.059Z,15.72
2023-05-24T21:16:00.437Z,15.76
2023-05-24T21:19:02.661Z,15.69
2023-05-24T21:22:04.808Z,15.68
2023-05-24T21:25:07.219Z,15.78
2023-05-24T21:28:10.372Z,15.73
2023-05-24T21:31:12.349Z,15.64
2023-05-24T21:34:14.306Z,15.63
2023-05-24T21:37:17.481Z,15.69
2023-05-24T21:40:19.465Z,15.73
2023-05-24T21:43:21.790Z,15.56
2023-05-24T21:46:23.726Z,15.64
2023-05-24T21:49:27.679Z,15.50
2023-05-24T21:52:29.647Z,15.44
2023-05-24T21:55:31.635Z,15.39
2023-05-24T21:58:33.518Z,15.53
2023-05-24T22:01:36.905Z,15.47
2023-05-24T22:04:38.847Z,15.34
2023-05-24T22:07:40.922Z,15.42
2023-05-24T22:10:42.812Z,15.40
2023-05-24T22:13:44.835Z,15.26
2023-05-24T22:16:46.922Z,15.29
2023-05-24T22:19:53.193Z,15.20
2023-05-24T22:22:55.204Z,15.13
2023-05-24T22:25:57.219Z,15.13
2023-05-24T22:29:04.028Z,15.06
2023-05-24T22:32:06.151Z,14.92
2023-05-24T22:35:08.875Z,14.85
2023-05-24T22:38:12.840Z,15.05
2023-05-24T22:41:14.746Z,14.89
2023-05-24T22:44:16.868Z,14.97
2023-05-24T22:47:20.182Z,14.80
2023-05-24T22:50:22.247Z,14.82
2023-05-24T22:53:32.205Z,14.79
2023-05-24T22:56:36.068Z,14.93
2023-05-24T22:59:38.025Z,14.87
2023-05-24T23:02:39.929Z,14.80
2023-05-24T23:05:42.212Z,14.71
2023-05-24T23:08:44.505Z,14.65
2023-05-24T23:11:46.346Z,14.66
2023-05-24T23:14:48.293Z,14.58
2023-05-24T23:17:52.780Z,14.42
2023-05-24T23:20:55.970Z,14.42
2023-05-24T23:23:57.910Z,14.37
2023-05-24T23:26:59.852Z,14.49
2023-05-24T23:30:01.733Z,14.42
2023-05-24T23:33:03.711Z,14.50
2023-05-24T23:36:06.115Z,14.42
2023-05-24T23:39:10.901Z,14.36
2023-05-24T23:42:12.867Z,14.33
2023-05-24T23:45:17.865Z,14.47
2023-05-24T23:48:23.182Z,14.49
2023-05-24T23:51:25.143Z,14.35
2023-05-24T23:54:27.062Z,14.23
2023-05-24T23:57:29.853Z,14.33
